aviador You're here:

UKBB Decoded Metar

KIEV in UKRAINE
Report Time2018-01-17 18:00:00
UTC Time2018-01-17 18:16:37
Flight Rules ifr IFR
Wind190° at 6 kt
W.Decomp.*RWY 18: 6.0 kt HW 0.5 kt RCW
W.Rank190° ranks 13
Current wind is below 190° avg. (7.9)
Visibility8000 m
Phenomena:N/A
Clouds:Overcast 005 Hf
Ceiling500 ft
Temp-3°C (ISA -17)
Dew Point-3°C (100% RH)
AAT-7.5°C
QNH0999 hPa
Density Alt-1,178 ft
Elevation390 ft
Report Wrong Elevation
Raw Report
UKBB 171800Z 19003MPS 8000 OVC005 M03/M03 Q0999 R18L/851040
R18R///99// TEMPO BKN004=

Extra information for UKBB:More info

Metar Taf Metar & Taf Last 4 Metars F.Rules Stats Wind Profile Meteogram Temp Stats Airport Information Weather charts Add Link Nearby VenuesMetar ALERT Operation Metar Decoded Social comments